createdAt,value
2022-11-18T00:01:59.948Z,2.60
2022-11-18T00:04:26.927Z,9.88
2022-11-18T00:06:54.034Z,3.25
2022-11-18T00:09:48.508Z,2.87
2022-11-18T00:12:17.825Z,3.63
2022-11-18T00:14:50.584Z,3.30
2022-11-18T00:17:18.666Z,4.15
2022-11-18T00:20:05.785Z,3.25
2022-11-18T00:22:32.493Z,3.63
2022-11-18T00:25:12.208Z,2.72
2022-11-18T00:27:54.432Z,3.90
2022-11-18T00:30:33.012Z,3.80
2022-11-18T00:35:42.076Z,2.83
2022-11-18T00:41:30.033Z,7.47
2022-11-18T00:44:12.359Z,3.13
2022-11-18T00:50:15.753Z,4.37
2022-11-18T00:52:51.780Z,3.08
2022-11-18T00:55:26.708Z,3.40
2022-11-18T00:58:05.859Z,7.18
2022-11-18T01:00:45.476Z,3.13
2022-11-18T01:03:12.847Z,5.43
2022-11-18T01:05:42.880Z,4.88
2022-11-18T01:08:18.969Z,4.13
2022-11-18T01:11:01.295Z,4.50
2022-11-18T01:13:31.595Z,3.55
2022-11-18T01:16:17.872Z,3.13
2022-11-18T01:21:34.364Z,6.32
2022-11-18T01:24:21.769Z,3.20
2022-11-18T01:27:39.479Z,3.35
2022-11-18T01:30:36.158Z,4.53
2022-11-18T01:33:04.159Z,3.28
2022-11-18T01:35:38.757Z,4.82
2022-11-18T01:38:06.432Z,3.40
2022-11-18T01:40:39.778Z,5.90
2022-11-18T01:46:27.102Z,3.00
2022-11-18T02:02:40.448Z,5.10
2022-11-18T02:11:22.472Z,3.42
2022-11-18T02:13:52.379Z,4.73
2022-11-18T02:26:26.873Z,5.50
2022-11-18T02:29:42.696Z,4.53
2022-11-18T02:32:41.785Z,4.30
2022-11-18T02:35:38.136Z,3.40
2022-11-18T02:38:28.293Z,3.72
2022-11-18T02:41:16.399Z,9.00
2022-11-18T02:44:09.345Z,4.93
2022-11-18T02:46:48.532Z,4.45
2022-11-18T02:49:25.186Z,3.88
2022-11-18T02:51:52.605Z,3.72
2022-11-18T02:54:21.018Z,5.15
2022-11-18T02:56:50.558Z,7.53
2022-11-18T02:59:20.758Z,3.78
2022-11-18T03:02:00.259Z,5.30
2022-11-18T03:04:27.299Z,5.22
2022-11-18T03:36:23.065Z,7.93
2022-11-18T03:38:54.622Z,8.95
2022-11-18T03:43:11.685Z,5.03
2022-11-18T03:47:33.768Z,4.88
2022-11-18T03:50:31.451Z,11.00
2022-11-18T03:52:59.711Z,9.07
2022-11-18T03:55:39.478Z,11.73
2022-11-18T04:01:13.121Z,12.23
2022-11-18T04:03:45.795Z,6.05
2022-11-18T04:16:18.857Z,5.25
2022-11-18T04:18:48.626Z,5.15
2022-11-18T04:21:27.253Z,5.70
2022-11-18T04:26:37.291Z,7.63
2022-11-18T04:29:04.324Z,12.80
2022-11-18T04:31:43.105Z,6.18
2022-11-18T04:34:09.756Z,8.63
2022-11-18T04:36:39.501Z,10.93
2022-11-18T04:39:12.076Z,11.10
2022-11-18T04:41:41.585Z,5.90
2022-11-18T04:46:48.992Z,9.40
2022-11-18T04:52:48.533Z,4.85
2022-11-18T04:55:47.660Z,5.82
2022-11-18T04:58:29.428Z,6.32
2022-11-18T05:01:05.356Z,5.78
2022-11-18T05:03:40.487Z,9.17
2022-11-18T05:06:15.969Z,4.90
2022-11-18T05:08:51.571Z,6.10
2022-11-18T05:11:36.100Z,5.60
2022-11-18T05:14:09.846Z,4.53
2022-11-18T05:16:37.441Z,5.00
2022-11-18T05:19:21.625Z,4.63
2022-11-18T05:21:53.137Z,7.70
2022-11-18T05:24:20.283Z,11.25
2022-11-18T05:26:47.329Z,5.20
2022-11-18T05:29:14.179Z,7.93
2022-11-18T05:31:40.814Z,5.63
2022-11-18T05:36:49.238Z,5.47
2022-11-18T05:39:25.046Z,9.68
2022-11-18T05:42:00.727Z,8.50
2022-11-18T05:44:36.449Z,4.57
2022-11-18T05:47:12.367Z,6.13
2022-11-18T05:49:48.239Z,13.38
2022-11-18T05:52:28.393Z,5.30
2022-11-18T05:55:01.327Z,4.97
2022-11-18T05:57:33.897Z,4.28
2022-11-18T06:00:09.745Z,3.88
2022-11-18T06:02:37.093Z,5.80
2022-11-18T06:11:45.560Z,6.22
2022-11-18T06:15:05.156Z,6.72
2022-11-18T06:21:14.025Z,4.05
2022-11-18T07:07:47.607Z,10.93
2022-11-18T07:10:24.714Z,7.17
2022-11-18T07:13:00.164Z,3.53
2022-11-18T07:15:36.060Z,3.78
2022-11-18T07:18:57.476Z,4.80
2022-11-18T07:55:14.269Z,9.40
2022-11-18T07:58:00.485Z,3.60
2022-11-18T08:15:08.326Z,8.88
2022-11-18T08:24:59.213Z,9.07
2022-11-18T08:27:32.414Z,6.35
2022-11-18T08:30:09.221Z,12.63
2022-11-18T08:38:24.501Z,6.55
2022-11-18T08:40:51.207Z,9.20
2022-11-18T08:43:24.101Z,4.85
2022-11-18T08:46:15.498Z,6.17
2022-11-18T08:48:48.331Z,4.05
2022-11-18T08:51:18.065Z,10.02
2022-11-18T08:53:44.736Z,11.73
2022-11-18T08:56:22.200Z,13.40
2022-11-18T08:59:07.488Z,10.23
2022-11-18T09:01:52.131Z,7.05
2022-11-18T09:04:26.934Z,5.40
2022-11-18T09:07:09.004Z,6.97
2022-11-18T09:09:40.108Z,4.55
2022-11-18T09:12:32.865Z,4.10
2022-11-18T09:15:43.195Z,5.80
2022-11-18T09:39:02.103Z,6.07
2022-11-18T09:41:48.955Z,3.67
2022-11-18T09:44:51.270Z,6.23
2022-11-18T09:47:30.429Z,9.95
2022-11-18T09:53:25.169Z,3.80
2022-11-18T09:55:55.739Z,9.95
2022-11-18T09:59:14.833Z,7.10
2022-11-18T10:01:42.702Z,11.73
2022-11-18T10:04:20.991Z,5.97
2022-11-18T10:10:03.361Z,7.53
2022-11-18T10:12:44.114Z,6.87
2022-11-18T10:15:49.884Z,6.70
2022-11-18T10:24:53.418Z,3.75
2022-11-18T10:27:39.271Z,12.50
2022-11-18T10:30:24.525Z,10.38
2022-11-18T10:32:58.393Z,4.20
2022-11-18T10:35:36.421Z,4.00
2022-11-18T10:38:15.305Z,14.27
2022-11-18T10:40:51.145Z,12.43
2022-11-18T10:43:55.436Z,6.20
2022-11-18T10:46:40.475Z,4.32
2022-11-18T10:49:19.434Z,4.32
2022-11-18T10:52:13.788Z,4.93
2022-11-18T10:54:41.894Z,13.97
2022-11-18T10:57:25.494Z,5.07
2022-11-18T10:59:58.540Z,4.53
2022-11-18T11:02:43.486Z,3.40
2022-11-18T11:05:34.159Z,14.15
2022-11-18T11:11:27.306Z,10.20
2022-11-18T11:14:00.465Z,12.65
2022-11-18T11:16:42.062Z,6.03
2022-11-18T11:19:11.786Z,8.85
2022-11-18T11:21:41.750Z,10.70
2022-11-18T11:24:24.772Z,5.90
2022-11-18T11:30:30.929Z,15.38
2022-11-18T11:33:25.921Z,8.60
2022-11-18T11:36:15.747Z,13.10
2022-11-18T11:39:06.688Z,15.05
2022-11-18T11:41:56.399Z,7.85
2022-11-18T11:45:04.000Z,12.63
2022-11-18T11:48:02.164Z,7.03
2022-11-18T11:51:03.383Z,5.63
2022-11-18T11:54:08.877Z,13.35
2022-11-18T11:56:53.822Z,14.93
2022-11-18T11:59:58.004Z,14.35
2022-11-18T12:02:53.761Z,6.70
2022-11-18T12:05:40.426Z,9.23
2022-11-18T12:08:30.754Z,5.97
2022-11-18T12:11:43.631Z,6.03
2022-11-18T12:14:54.705Z,7.13
2022-11-18T12:20:45.043Z,7.17
2022-11-18T12:23:33.592Z,12.45
2022-11-18T12:26:09.558Z,7.10
2022-11-18T12:28:51.062Z,8.65
2022-11-18T12:31:36.088Z,9.32
2022-11-18T12:34:06.792Z,11.03
2022-11-18T12:36:40.663Z,7.07
2022-11-18T12:39:25.465Z,7.20
2022-11-18T12:42:46.495Z,7.55
2022-11-18T12:45:41.042Z,7.90
2022-11-18T12:48:28.116Z,7.30
2022-11-18T12:50:57.470Z,18.23
2022-11-18T12:53:46.081Z,9.35
2022-11-18T12:56:23.228Z,10.75
2022-11-18T12:59:01.925Z,9.50
2022-11-18T13:01:42.329Z,10.50
2022-11-18T13:04:45.240Z,12.00
2022-11-18T13:07:25.452Z,8.80
2022-11-18T13:10:37.985Z,9.32
2022-11-18T13:13:05.647Z,9.70
2022-11-18T13:15:42.379Z,8.90
2022-11-18T13:18:20.433Z,7.97
2022-11-18T13:21:10.257Z,9.32
2022-11-18T13:24:00.974Z,10.43
2022-11-18T13:26:42.271Z,10.40
2022-11-18T13:32:44.027Z,7.10
2022-11-18T13:35:24.238Z,13.25
2022-11-18T13:38:03.897Z,9.90
2022-11-18T13:40:46.832Z,10.80
2022-11-18T13:43:54.335Z,9.57
2022-11-18T13:46:29.737Z,15.32
2022-11-18T13:49:16.577Z,8.63
2022-11-18T13:51:53.242Z,9.00
2022-11-18T13:54:32.516Z,9.05
2022-11-18T13:56:59.264Z,9.07
2022-11-18T13:59:28.978Z,8.52
2022-11-18T14:02:14.288Z,12.55
2022-11-18T14:04:56.363Z,12.07
2022-11-18T14:07:55.615Z,8.88
2022-11-18T14:11:01.734Z,14.07
2022-11-18T14:13:52.073Z,10.43
2022-11-18T14:16:21.515Z,11.10
2022-11-18T14:19:03.889Z,8.40
2022-11-18T14:21:48.613Z,8.65
2022-11-18T14:27:03.507Z,11.82
2022-11-18T14:29:30.336Z,14.77
2022-11-18T14:32:25.377Z,8.52
2022-11-18T14:38:04.675Z,12.47
2022-11-18T14:40:45.128Z,12.20
2022-11-18T14:43:13.169Z,12.68
2022-11-18T14:45:45.032Z,11.05
2022-11-18T14:48:32.720Z,10.57
2022-11-18T14:51:00.476Z,9.73
2022-11-18T14:53:34.254Z,9.10
2022-11-18T14:56:17.747Z,11.15
2022-11-18T14:59:00.500Z,9.38
2022-11-18T15:01:36.149Z,9.02
2022-11-18T15:04:06.541Z,10.23
2022-11-18T15:06:34.028Z,9.57
2022-11-18T15:09:12.185Z,11.45
2022-11-18T15:11:54.032Z,9.52
2022-11-18T15:14:33.004Z,11.50
2022-11-18T15:17:00.568Z,15.63
2022-11-18T15:19:28.631Z,9.05
2022-11-18T15:22:01.620Z,8.25
2022-11-18T15:24:28.452Z,9.65
2022-11-18T15:27:01.190Z,19.70
2022-11-18T15:29:40.664Z,10.17
2022-11-18T15:38:11.293Z,8.25
2022-11-18T15:40:38.010Z,8.32
2022-11-18T15:43:27.298Z,9.30
2022-11-18T15:46:00.539Z,9.35
2022-11-18T15:48:27.362Z,8.43
2022-11-18T15:50:58.023Z,8.90
2022-11-18T15:53:24.960Z,9.60
2022-11-18T15:59:36.728Z,13.00
2022-11-18T16:05:09.655Z,8.90
2022-11-18T16:07:42.440Z,9.25
2022-11-18T16:10:10.128Z,12.27
2022-11-18T16:12:36.811Z,8.85
2022-11-18T16:17:46.951Z,9.65
2022-11-18T16:20:20.205Z,8.57
2022-11-18T16:22:52.491Z,15.97
2022-11-18T16:25:24.172Z,10.80
2022-11-18T16:27:55.134Z,11.40
2022-11-18T16:30:42.332Z,10.43
2022-11-18T16:33:11.331Z,10.35
2022-11-18T16:35:38.126Z,10.47
2022-11-18T16:38:08.591Z,9.75
2022-11-18T16:40:41.749Z,11.57
2022-11-18T16:43:14.566Z,10.68
2022-11-18T16:49:24.777Z,13.03
2022-11-18T16:51:54.604Z,11.02
2022-11-18T16:54:28.839Z,12.65
2022-11-18T16:57:03.598Z,11.35
2022-11-18T16:59:31.453Z,14.40
2022-11-18T17:04:41.123Z,13.40
2022-11-18T17:07:11.572Z,12.38
2022-11-18T17:09:41.806Z,10.95
2022-11-18T17:12:08.570Z,10.18
2022-11-18T17:14:35.550Z,12.97
2022-11-18T17:17:02.292Z,12.07
2022-11-18T17:19:29.046Z,13.15
2022-11-18T17:21:55.799Z,13.82
2022-11-18T17:24:28.108Z,12.57
2022-11-18T17:26:57.362Z,13.13
2022-11-18T17:29:24.094Z,14.98
2022-11-18T17:32:02.361Z,12.32
2022-11-18T17:34:29.112Z,15.80
2022-11-18T17:37:07.059Z,12.80
2022-11-18T17:39:43.303Z,13.27
2022-11-18T17:42:10.015Z,13.10
2022-11-18T17:44:39.665Z,12.70
2022-11-18T17:47:29.292Z,13.75
2022-11-18T17:49:54.194Z,12.95
2022-11-18T17:52:23.984Z,10.17
2022-11-18T17:54:56.605Z,11.35
2022-11-18T17:57:23.453Z,12.38
2022-11-18T17:59:50.127Z,10.48
2022-11-18T18:02:16.953Z,9.23
2022-11-18T18:04:43.778Z,9.00
2022-11-18T18:07:10.472Z,8.40
2022-11-18T18:09:37.194Z,11.05
2022-11-18T18:12:04.146Z,12.82
2022-11-18T18:14:39.490Z,9.75
2022-11-18T18:17:09.869Z,10.67
2022-11-18T18:19:36.718Z,12.48
2022-11-18T18:22:03.595Z,14.57
2022-11-18T18:24:30.601Z,8.73
2022-11-18T18:26:57.333Z,12.18
2022-11-18T18:29:31.434Z,6.00
2022-11-18T18:32:04.647Z,16.95
2022-11-18T18:34:34.576Z,10.23
2022-11-18T18:37:06.740Z,7.72
2022-11-18T18:39:36.631Z,8.00
2022-11-18T18:42:12.594Z,6.70
2022-11-18T18:44:41.689Z,6.60
2022-11-18T18:47:08.370Z,7.03
2022-11-18T18:49:35.187Z,11.90
2022-11-18T18:52:14.161Z,9.88
2022-11-18T18:54:49.605Z,6.57
2022-11-18T18:57:16.235Z,6.47
2022-11-18T18:59:42.937Z,7.53
2022-11-18T19:02:12.333Z,7.38
2022-11-18T19:04:46.506Z,10.98
2022-11-18T19:07:15.718Z,7.33
2022-11-18T19:09:45.627Z,18.00
2022-11-18T19:12:15.208Z,9.75
2022-11-18T19:14:45.558Z,8.35
2022-11-18T19:17:13.093Z,15.38
2022-11-18T19:19:42.888Z,13.80
2022-11-18T19:22:11.092Z,11.15
2022-11-18T19:24:49.280Z,11.75
2022-11-18T19:27:20.095Z,8.23
2022-11-18T19:29:46.980Z,18.58
2022-11-18T19:32:14.360Z,13.90
2022-11-18T19:34:41.104Z,16.02
2022-11-18T19:37:07.700Z,12.82
2022-11-18T19:39:34.353Z,22.42
2022-11-18T19:42:01.244Z,14.82
2022-11-18T19:44:29.995Z,16.97
2022-11-18T19:46:59.445Z,15.63
2022-11-18T19:49:26.228Z,16.45
2022-11-18T19:51:54.078Z,16.98
2022-11-18T19:54:20.939Z,14.15
2022-11-18T19:56:48.038Z,16.33
2022-11-18T19:59:14.817Z,15.18
2022-11-18T20:01:41.762Z,13.35
2022-11-18T20:04:09.543Z,12.70
2022-11-18T20:06:37.441Z,12.38
2022-11-18T20:09:10.369Z,16.73
2022-11-18T20:11:37.116Z,10.70
2022-11-18T20:14:04.308Z,12.98
2022-11-18T20:16:31.387Z,10.13
2022-11-18T20:19:00.943Z,10.07
2022-11-18T20:21:31.178Z,9.07
2022-11-18T20:24:02.386Z,11.48
2022-11-18T20:26:32.413Z,9.43
2022-11-18T20:28:59.363Z,9.38
2022-11-18T20:31:27.739Z,11.88
2022-11-18T20:33:56.002Z,13.80
2022-11-18T20:36:27.137Z,10.18
2022-11-18T20:39:06.493Z,13.05
2022-11-18T20:41:33.892Z,12.10
2022-11-18T20:44:00.992Z,12.93
2022-11-18T20:46:28.058Z,11.37
2022-11-18T20:48:55.337Z,13.13
2022-11-18T20:51:27.483Z,13.20
2022-11-18T20:53:55.906Z,11.68
2022-11-18T20:56:27.458Z,12.77
2022-11-18T20:59:10.730Z,14.63
2022-11-18T21:01:37.617Z,15.15
2022-11-18T21:04:11.692Z,24.17
2022-11-18T21:06:38.358Z,15.25
2022-11-18T21:09:06.158Z,13.52
2022-11-18T21:11:36.214Z,12.93
2022-11-18T21:14:05.985Z,14.45
2022-11-18T21:16:33.460Z,15.02
2022-11-18T21:19:00.183Z,14.88
2022-11-18T21:21:26.849Z,14.43
2022-11-18T21:24:15.503Z,17.37
2022-11-18T21:26:46.744Z,12.90
2022-11-18T21:29:14.794Z,18.05
2022-11-18T21:31:53.303Z,13.98
2022-11-18T21:34:28.253Z,17.20
2022-11-18T21:36:55.517Z,15.60
2022-11-18T21:39:23.873Z,15.43
2022-11-18T21:41:56.700Z,12.77
2022-11-18T21:44:25.287Z,13.32
2022-11-18T21:46:52.030Z,14.65
2022-11-18T21:53:22.184Z,15.77
2022-11-18T21:55:50.288Z,12.63
2022-11-18T21:58:25.028Z,13.10
2022-11-18T22:03:56.256Z,9.97
2022-11-18T22:06:27.997Z,12.00
2022-11-18T22:08:57.718Z,16.90
2022-11-18T22:11:33.391Z,12.48
2022-11-18T22:14:00.236Z,14.02
2022-11-18T22:16:29.799Z,14.87
2022-11-18T22:19:08.549Z,15.57
2022-11-18T22:21:50.320Z,12.32
2022-11-18T22:24:17.117Z,16.33
2022-11-18T22:26:53.840Z,11.77
2022-11-18T22:29:20.968Z,12.20
2022-11-18T22:31:48.649Z,8.43
2022-11-18T22:34:15.383Z,16.02
2022-11-18T22:36:42.084Z,9.90
2022-11-18T22:42:38.971Z,14.40
2022-11-18T22:45:20.840Z,15.23
2022-11-18T22:58:50.699Z,24.50
2022-11-18T23:01:22.395Z,13.13
2022-11-18T23:03:54.830Z,12.10
2022-11-18T23:06:21.832Z,12.05
2022-11-18T23:08:55.483Z,16.57
2022-11-18T23:11:22.149Z,22.50
2022-11-18T23:13:54.521Z,13.98
2022-11-18T23:16:26.439Z,21.05
2022-11-18T23:18:55.741Z,19.35
2022-11-18T23:21:31.400Z,13.77
2022-11-18T23:24:20.965Z,16.63
2022-11-18T23:26:46.728Z,17.77
2022-11-18T23:29:17.096Z,14.13
2022-11-18T23:31:58.233Z,13.07
2022-11-18T23:34:25.045Z,15.93
2022-11-18T23:36:57.012Z,13.63
2022-11-18T23:39:26.506Z,17.10
2022-11-18T23:41:53.707Z,15.43
2022-11-18T23:44:26.011Z,16.15
2022-11-18T23:47:01.873Z,16.90
2022-11-18T23:49:28.850Z,16.10
2022-11-18T23:51:58.216Z,25.42
2022-11-18T23:54:33.826Z,24.33
2022-11-18T23:57:04.628Z,14.60
2022-11-18T23:59:34.318Z,15.70
